sensor_id;sensor_type;location;lat;lon;timestamp;temperature;humidity
26954;DHT22;14508;50.924;11.600;2024-03-08T00:00:08;-0.20;99.90
26954;DHT22;14508;50.924;11.600;2024-03-08T00:02:39;-0.20;99.90
26954;DHT22;14508;50.924;11.600;2024-03-08T00:05:08;-0.30;99.90
26954;DHT22;14508;50.924;11.600;2024-03-08T00:07:36;-0.30;99.90
26954;DHT22;14508;50.924;11.600;2024-03-08T00:10:04;-0.30;99.90
26954;DHT22;14508;50.924;11.600;2024-03-08T00:12:34;-0.30;99.90
26954;DHT22;14508;50.924;11.600;2024-03-08T00:15:02;-0.30;99.90
26954;DHT22;14508;50.924;11.600;2024-03-08T00:17:30;-0.30;99.90
26954;DHT22;14508;50.924;11.600;2024-03-08T00:19:58;-0.30;99.90
26954;DHT22;14508;50.924;11.600;2024-03-08T00:22:26;-0.40;99.90
26954;DHT22;14508;50.924;11.600;2024-03-08T00:24:54;-0.40;99.90
26954;DHT22;14508;50.924;11.600;2024-03-08T00:27:22;-0.40;99.90
26954;DHT22;14508;50.924;11.600;2024-03-08T00:29:51;-0.40;99.90
26954;DHT22;14508;50.924;11.600;2024-03-08T00:32:19;-0.50;99.90
26954;DHT22;14508;50.924;11.600;2024-03-08T00:34:47;-0.40;99.90
26954;DHT22;14508;50.924;11.600;2024-03-08T00:37:18;-0.50;99.90
26954;DHT22;14508;50.924;11.600;2024-03-08T00:39:46;-0.40;99.90
26954;DHT22;14508;50.924;11.600;2024-03-08T00:42:14;-0.40;99.90
26954;DHT22;14508;50.924;11.600;2024-03-08T00:44:42;-0.40;99.90
26954;DHT22;14508;50.924;11.600;2024-03-08T00:47:11;-0.50;99.90
26954;DHT22;14508;50.924;11.600;2024-03-08T00:49:41;-0.50;99.90
26954;DHT22;14508;50.924;11.600;2024-03-08T00:52:09;-0.50;99.90
26954;DHT22;14508;50.924;11.600;2024-03-08T00:54:37;-0.50;99.90
26954;DHT22;14508;50.924;11.600;2024-03-08T00:57:05;-0.50;99.90
26954;DHT22;14508;50.924;11.600;2024-03-08T00:59:33;-0.50;99.90
26954;DHT22;14508;50.924;11.600;2024-03-08T01:02:02;-0.60;99.90
26954;DHT22;14508;50.924;11.600;2024-03-08T01:04:31;-0.60;99.90
26954;DHT22;14508;50.924;11.600;2024-03-08T01:07:00;-0.60;99.90
26954;DHT22;14508;50.924;11.600;2024-03-08T01:09:28;-0.70;99.90
26954;DHT22;14508;50.924;11.600;2024-03-08T01:11:56;-0.70;99.90
26954;DHT22;14508;50.924;11.600;2024-03-08T01:14:25;-0.70;99.90
26954;DHT22;14508;50.924;11.600;2024-03-08T01:16:53;-0.70;99.90
26954;DHT22;14508;50.924;11.600;2024-03-08T01:19:21;-0.70;99.90
26954;DHT22;14508;50.924;11.600;2024-03-08T01:21:51;-0.80;99.90
26954;DHT22;14508;50.924;11.600;2024-03-08T01:24:19;-0.80;99.90
26954;DHT22;14508;50.924;11.600;2024-03-08T01:26:47;-0.80;99.90
26954;DHT22;14508;50.924;11.600;2024-03-08T01:29:15;-0.80;99.90
26954;DHT22;14508;50.924;11.600;2024-03-08T01:31:43;-0.80;99.90
26954;DHT22;14508;50.924;11.600;2024-03-08T01:34:11;-0.80;99.90
26954;DHT22;14508;50.924;11.600;2024-03-08T01:36:38;-0.90;99.90
26954;DHT22;14508;50.924;11.600;2024-03-08T01:39:08;-0.90;99.90
26954;DHT22;14508;50.924;11.600;2024-03-08T01:41:37;-1.00;99.90
26954;DHT22;14508;50.924;11.600;2024-03-08T01:44:04;-1.00;99.90
26954;DHT22;14508;50.924;11.600;2024-03-08T01:46:34;-1.00;99.90
26954;DHT22;14508;50.924;11.600;2024-03-08T01:49:02;-1.00;99.90
26954;DHT22;14508;50.924;11.600;2024-03-08T01:51:30;-1.00;99.90
26954;DHT22;14508;50.924;11.600;2024-03-08T01:54:00;-1.10;99.90
26954;DHT22;14508;50.924;11.600;2024-03-08T01:56:32;-1.10;99.90
26954;DHT22;14508;50.924;11.600;2024-03-08T01:59:00;-1.10;99.90
26954;DHT22;14508;50.924;11.600;2024-03-08T02:01:28;-1.10;99.90
26954;DHT22;14508;50.924;11.600;2024-03-08T02:03:56;-1.10;99.90
26954;DHT22;14508;50.924;11.600;2024-03-08T02:06:24;-1.10;99.90
26954;DHT22;14508;50.924;11.600;2024-03-08T02:08:52;-1.10;99.90
26954;DHT22;14508;50.924;11.600;2024-03-08T02:11:20;-1.10;99.90
26954;DHT22;14508;50.924;11.600;2024-03-08T02:13:49;-1.10;99.90
26954;DHT22;14508;50.924;11.600;2024-03-08T02:16:20;-1.10;99.90
26954;DHT22;14508;50.924;11.600;2024-03-08T02:18:49;-1.10;99.90
26954;DHT22;14508;50.924;11.600;2024-03-08T02:21:18;-1.10;99.90
26954;DHT22;14508;50.924;11.600;2024-03-08T02:23:46;-1.20;99.90
26954;DHT22;14508;50.924;11.600;2024-03-08T02:26:14;-1.10;99.90
26954;DHT22;14508;50.924;11.600;2024-03-08T02:28:43;-1.20;99.90
26954;DHT22;14508;50.924;11.600;2024-03-08T02:31:11;-1.20;99.90
26954;DHT22;14508;50.924;11.600;2024-03-08T02:33:39;-1.20;99.90
26954;DHT22;14508;50.924;11.600;2024-03-08T02:36:07;-1.20;99.90
26954;DHT22;14508;50.924;11.600;2024-03-08T02:38:37;-1.20;99.90
26954;DHT22;14508;50.924;11.600;2024-03-08T02:41:04;-1.20;99.90
26954;DHT22;14508;50.924;11.600;2024-03-08T02:43:32;-1.20;99.90
26954;DHT22;14508;50.924;11.600;2024-03-08T02:46:01;-1.20;99.90
26954;DHT22;14508;50.924;11.600;2024-03-08T02:48:28;-1.30;99.90
26954;DHT22;14508;50.924;11.600;2024-03-08T02:50:56;-1.30;99.90
26954;DHT22;14508;50.924;11.600;2024-03-08T02:53:23;-1.30;99.90
26954;DHT22;14508;50.924;11.600;2024-03-08T02:55:53;-1.30;99.90
26954;DHT22;14508;50.924;11.600;2024-03-08T02:58:22;-1.40;99.90
26954;DHT22;14508;50.924;11.600;2024-03-08T03:00:49;-1.30;99.90
26954;DHT22;14508;50.924;11.600;2024-03-08T03:03:17;-1.30;99.90
26954;DHT22;14508;50.924;11.600;2024-03-08T03:05:45;-1.30;99.90
26954;DHT22;14508;50.924;11.600;2024-03-08T03:08:15;-1.40;99.90
26954;DHT22;14508;50.924;11.600;2024-03-08T03:10:45;-1.40;99.90
26954;DHT22;14508;50.924;11.600;2024-03-08T03:13:15;-1.40;99.90
26954;DHT22;14508;50.924;11.600;2024-03-08T03:15:42;-1.40;99.90
26954;DHT22;14508;50.924;11.600;2024-03-08T03:18:11;-1.50;99.90
26954;DHT22;14508;50.924;11.600;2024-03-08T03:20:39;-1.50;99.90
26954;DHT22;14508;50.924;11.600;2024-03-08T03:23:09;-1.50;99.90
26954;DHT22;14508;50.924;11.600;2024-03-08T03:25:40;-1.60;99.90
26954;DHT22;14508;50.924;11.600;2024-03-08T03:28:09;-1.60;99.90
26954;DHT22;14508;50.924;11.600;2024-03-08T03:30:39;-1.70;99.90
26954;DHT22;14508;50.924;11.600;2024-03-08T03:33:07;-1.70;99.90
26954;DHT22;14508;50.924;11.600;2024-03-08T03:35:36;-1.70;99.90
26954;DHT22;14508;50.924;11.600;2024-03-08T03:38:05;-1.70;99.90
26954;DHT22;14508;50.924;11.600;2024-03-08T03:40:37;-1.70;99.90
26954;DHT22;14508;50.924;11.600;2024-03-08T03:43:05;-1.70;99.90
26954;DHT22;14508;50.924;11.600;2024-03-08T03:45:33;-1.70;99.90
26954;DHT22;14508;50.924;11.600;2024-03-08T03:48:04;-1.70;99.90
26954;DHT22;14508;50.924;11.600;2024-03-08T03:50:34;-1.70;99.90
26954;DHT22;14508;50.924;11.600;2024-03-08T03:53:03;-1.70;99.90
26954;DHT22;14508;50.924;11.600;2024-03-08T03:55:34;-1.70;99.90
26954;DHT22;14508;50.924;11.600;2024-03-08T03:58:03;-1.70;99.90
26954;DHT22;14508;50.924;11.600;2024-03-08T04:00:31;-1.70;99.90
26954;DHT22;14508;50.924;11.600;2024-03-08T04:02:59;-1.80;99.90
26954;DHT22;14508;50.924;11.600;2024-03-08T04:05:29;-1.70;99.90
26954;DHT22;14508;50.924;11.600;2024-03-08T04:07:57;-1.70;99.90
26954;DHT22;14508;50.924;11.600;2024-03-08T04:10:25;-1.80;99.90
26954;DHT22;14508;50.924;11.600;2024-03-08T04:12:53;-1.80;99.90
26954;DHT22;14508;50.924;11.600;2024-03-08T04:15:21;-1.80;99.90
26954;DHT22;14508;50.924;11.600;2024-03-08T04:17:49;-1.80;99.90
26954;DHT22;14508;50.924;11.600;2024-03-08T04:20:18;-1.90;99.90
26954;DHT22;14508;50.924;11.600;2024-03-08T04:22:47;-1.90;99.90
26954;DHT22;14508;50.924;11.600;2024-03-08T04:25:16;-1.90;99.90
26954;DHT22;14508;50.924;11.600;2024-03-08T04:27:44;-1.90;99.90
26954;DHT22;14508;50.924;11.600;2024-03-08T04:30:13;-1.90;99.90
26954;DHT22;14508;50.924;11.600;2024-03-08T04:32:41;-1.90;99.90
26954;DHT22;14508;50.924;11.600;2024-03-08T04:35:10;-1.90;99.90
26954;DHT22;14508;50.924;11.600;2024-03-08T04:37:39;-1.90;99.90
26954;DHT22;14508;50.924;11.600;2024-03-08T04:40:09;-2.00;99.90
26954;DHT22;14508;50.924;11.600;2024-03-08T04:42:39;-1.90;99.90
26954;DHT22;14508;50.924;11.600;2024-03-08T04:45:08;-1.90;99.90
26954;DHT22;14508;50.924;11.600;2024-03-08T04:47:38;-1.90;99.90
26954;DHT22;14508;50.924;11.600;2024-03-08T04:50:06;-2.00;99.90
26954;DHT22;14508;50.924;11.600;2024-03-08T04:52:35;-2.00;99.90
26954;DHT22;14508;50.924;11.600;2024-03-08T04:55:04;-2.00;99.90
26954;DHT22;14508;50.924;11.600;2024-03-08T04:57:34;-2.00;99.90
26954;DHT22;14508;50.924;11.600;2024-03-08T05:00:02;-2.00;99.90
26954;DHT22;14508;50.924;11.600;2024-03-08T05:02:37;-2.00;99.90
26954;DHT22;14508;50.924;11.600;2024-03-08T05:05:06;-2.00;99.90
26954;DHT22;14508;50.924;11.600;2024-03-08T05:07:34;-2.00;99.90
26954;DHT22;14508;50.924;11.600;2024-03-08T05:10:02;-2.10;99.90
26954;DHT22;14508;50.924;11.600;2024-03-08T05:12:29;-2.10;99.90
26954;DHT22;14508;50.924;11.600;2024-03-08T05:14:59;-2.10;99.90
26954;DHT22;14508;50.924;11.600;2024-03-08T05:17:27;-2.10;99.90
26954;DHT22;14508;50.924;11.600;2024-03-08T05:19:56;-2.10;99.90
26954;DHT22;14508;50.924;11.600;2024-03-08T05:22:24;-2.10;99.90
26954;DHT22;14508;50.924;11.600;2024-03-08T05:24:52;-2.10;99.90
26954;DHT22;14508;50.924;11.600;2024-03-08T05:27:20;-2.10;99.90
26954;DHT22;14508;50.924;11.600;2024-03-08T05:29:48;-2.10;99.90
26954;DHT22;14508;50.924;11.600;2024-03-08T05:32:18;-2.10;99.90
26954;DHT22;14508;50.924;11.600;2024-03-08T05:34:46;-2.10;99.90
26954;DHT22;14508;50.924;11.600;2024-03-08T05:37:14;-2.10;99.90
26954;DHT22;14508;50.924;11.600;2024-03-08T05:39:42;-2.10;99.90
26954;DHT22;14508;50.924;11.600;2024-03-08T05:42:11;-2.20;99.90
26954;DHT22;14508;50.924;11.600;2024-03-08T05:44:39;-2.20;99.90
26954;DHT22;14508;50.924;11.600;2024-03-08T05:47:07;-2.20;99.90
26954;DHT22;14508;50.924;11.600;2024-03-08T05:49:36;-2.20;99.90
26954;DHT22;14508;50.924;11.600;2024-03-08T05:52:04;-2.10;99.90
26954;DHT22;14508;50.924;11.600;2024-03-08T05:54:32;-2.10;99.90
26954;DHT22;14508;50.924;11.600;2024-03-08T05:57:00;-2.10;99.90
26954;DHT22;14508;50.924;11.600;2024-03-08T05:59:28;-2.10;99.90
26954;DHT22;14508;50.924;11.600;2024-03-08T06:01:56;-2.10;99.90
26954;DHT22;14508;50.924;11.600;2024-03-08T06:04:24;-2.10;99.90
26954;DHT22;14508;50.924;11.600;2024-03-08T06:06:53;-2.00;99.90
26954;DHT22;14508;50.924;11.600;2024-03-08T06:09:22;-2.00;99.90
26954;DHT22;14508;50.924;11.600;2024-03-08T06:11:51;-2.00;99.90
26954;DHT22;14508;50.924;11.600;2024-03-08T06:14:21;-1.90;99.90
26954;DHT22;14508;50.924;11.600;2024-03-08T06:16:50;-1.90;99.90
26954;DHT22;14508;50.924;11.600;2024-03-08T06:19:18;-1.90;99.90
26954;DHT22;14508;50.924;11.600;2024-03-08T06:21:45;-1.80;99.90
26954;DHT22;14508;50.924;11.600;2024-03-08T06:24:15;-1.80;99.90
26954;DHT22;14508;50.924;11.600;2024-03-08T06:26:43;-1.70;99.90
26954;DHT22;14508;50.924;11.600;2024-03-08T06:29:11;-1.70;99.90
26954;DHT22;14508;50.924;11.600;2024-03-08T06:31:39;-1.60;99.90
26954;DHT22;14508;50.924;11.600;2024-03-08T06:34:07;-1.60;99.90
26954;DHT22;14508;50.924;11.600;2024-03-08T06:36:36;-1.50;99.90
26954;DHT22;14508;50.924;11.600;2024-03-08T06:39:05;-1.40;99.90
26954;DHT22;14508;50.924;11.600;2024-03-08T06:41:38;-1.40;99.90
26954;DHT22;14508;50.924;11.600;2024-03-08T06:44:07;-1.30;99.90
26954;DHT22;14508;50.924;11.600;2024-03-08T06:46:35;-1.20;99.90
26954;DHT22;14508;50.924;11.600;2024-03-08T06:49:05;-1.20;99.90
26954;DHT22;14508;50.924;11.600;2024-03-08T06:51:34;-1.10;99.90
26954;DHT22;14508;50.924;11.600;2024-03-08T06:54:02;-1.00;99.90
26954;DHT22;14508;50.924;11.600;2024-03-08T06:56:35;-0.90;99.90
26954;DHT22;14508;50.924;11.600;2024-03-08T06:59:04;-0.80;99.90
26954;DHT22;14508;50.924;11.600;2024-03-08T07:01:33;-0.70;99.90
26954;DHT22;14508;50.924;11.600;2024-03-08T07:04:03;-0.60;99.90
26954;DHT22;14508;50.924;11.600;2024-03-08T07:06:32;-0.50;99.90
26954;DHT22;14508;50.924;11.600;2024-03-08T07:09:00;-0.40;99.90
26954;DHT22;14508;50.924;11.600;2024-03-08T07:11:29;-0.30;99.90
26954;DHT22;14508;50.924;11.600;2024-03-08T07:13:57;-0.20;99.90
26954;DHT22;14508;50.924;11.600;2024-03-08T07:16:27;-0.10;99.90
26954;DHT22;14508;50.924;11.600;2024-03-08T07:18:55;0.00;99.90
26954;DHT22;14508;50.924;11.600;2024-03-08T07:21:25;0.10;99.90
26954;DHT22;14508;50.924;11.600;2024-03-08T07:23:53;0.20;99.90
26954;DHT22;14508;50.924;11.600;2024-03-08T07:26:36;0.30;99.90
26954;DHT22;14508;50.924;11.600;2024-03-08T07:29:05;0.40;99.90
26954;DHT22;14508;50.924;11.600;2024-03-08T07:31:36;0.50;99.90
26954;DHT22;14508;50.924;11.600;2024-03-08T07:34:16;0.60;99.90
26954;DHT22;14508;50.924;11.600;2024-03-08T07:36:44;0.80;99.90
26954;DHT22;14508;50.924;11.600;2024-03-08T07:39:12;0.90;99.90
26954;DHT22;14508;50.924;11.600;2024-03-08T07:41:40;1.00;99.90
26954;DHT22;14508;50.924;11.600;2024-03-08T07:44:08;1.10;99.90
26954;DHT22;14508;50.924;11.600;2024-03-08T07:46:38;1.20;99.90
26954;DHT22;14508;50.924;11.600;2024-03-08T07:49:08;1.30;99.90
26954;DHT22;14508;50.924;11.600;2024-03-08T07:51:37;1.40;99.90
26954;DHT22;14508;50.924;11.600;2024-03-08T07:54:05;1.50;99.90
26954;DHT22;14508;50.924;11.600;2024-03-08T07:56:36;1.70;99.90
26954;DHT22;14508;50.924;11.600;2024-03-08T07:59:04;1.80;99.90
26954;DHT22;14508;50.924;11.600;2024-03-08T08:01:33;1.90;99.90
26954;DHT22;14508;50.924;11.600;2024-03-08T08:04:02;1.90;99.90
26954;DHT22;14508;50.924;11.600;2024-03-08T08:06:30;1.90;99.90
26954;DHT22;14508;50.924;11.600;2024-03-08T08:08:58;1.70;99.90
26954;DHT22;14508;50.924;11.600;2024-03-08T08:11:27;1.70;99.90
26954;DHT22;14508;50.924;11.600;2024-03-08T08:13:55;1.70;99.90
26954;DHT22;14508;50.924;11.600;2024-03-08T08:16:23;1.70;99.90
26954;DHT22;14508;50.924;11.600;2024-03-08T08:18:52;1.80;99.90
26954;DHT22;14508;50.924;11.600;2024-03-08T08:21:22;1.90;99.90
26954;DHT22;14508;50.924;11.600;2024-03-08T08:23:51;2.00;99.90
26954;DHT22;14508;50.924;11.600;2024-03-08T08:26:19;2.10;99.90
26954;DHT22;14508;50.924;11.600;2024-03-08T08:28:48;2.30;99.90
26954;DHT22;14508;50.924;11.600;2024-03-08T08:31:16;2.40;99.90
26954;DHT22;14508;50.924;11.600;2024-03-08T08:33:43;2.50;99.90
26954;DHT22;14508;50.924;11.600;2024-03-08T08:36:15;2.70;99.90
26954;DHT22;14508;50.924;11.600;2024-03-08T08:38:44;2.80;99.90
26954;DHT22;14508;50.924;11.600;2024-03-08T08:41:13;3.00;99.90
26954;DHT22;14508;50.924;11.600;2024-03-08T08:43:42;3.10;99.90
26954;DHT22;14508;50.924;11.600;2024-03-08T08:46:28;3.30;99.90
26954;DHT22;14508;50.924;11.600;2024-03-08T08:48:56;3.40;99.90
26954;DHT22;14508;50.924;11.600;2024-03-08T08:51:25;3.50;99.90
26954;DHT22;14508;50.924;11.600;2024-03-08T08:53:55;3.50;99.90
26954;DHT22;14508;50.924;11.600;2024-03-08T08:56:23;3.70;99.90
26954;DHT22;14508;50.924;11.600;2024-03-08T08:58:52;3.80;99.90
26954;DHT22;14508;50.924;11.600;2024-03-08T09:01:21;3.90;99.90
26954;DHT22;14508;50.924;11.600;2024-03-08T09:03:49;4.00;99.90
26954;DHT22;14508;50.924;11.600;2024-03-08T09:06:19;4.10;99.90
26954;DHT22;14508;50.924;11.600;2024-03-08T09:08:46;4.20;99.90
26954;DHT22;14508;50.924;11.600;2024-03-08T09:11:16;4.30;99.90
26954;DHT22;14508;50.924;11.600;2024-03-08T09:13:44;4.50;99.90
26954;DHT22;14508;50.924;11.600;2024-03-08T09:16:13;4.60;99.90
26954;DHT22;14508;50.924;11.600;2024-03-08T09:18:41;4.70;99.90
26954;DHT22;14508;50.924;11.600;2024-03-08T09:21:09;4.90;99.90
26954;DHT22;14508;50.924;11.600;2024-03-08T09:23:37;4.90;99.90
26954;DHT22;14508;50.924;11.600;2024-03-08T09:26:05;4.90;99.90
26954;DHT22;14508;50.924;11.600;2024-03-08T09:28:49;5.00;99.90
26954;DHT22;14508;50.924;11.600;2024-03-08T09:31:17;5.10;99.90
26954;DHT22;14508;50.924;11.600;2024-03-08T09:33:46;5.20;99.90
26954;DHT22;14508;50.924;11.600;2024-03-08T09:36:15;5.20;99.90
26954;DHT22;14508;50.924;11.600;2024-03-08T09:38:43;5.30;99.90
26954;DHT22;14508;50.924;11.600;2024-03-08T09:41:11;5.30;99.90
26954;DHT22;14508;50.924;11.600;2024-03-08T09:43:39;5.40;99.90
26954;DHT22;14508;50.924;11.600;2024-03-08T09:46:09;5.50;99.90
26954;DHT22;14508;50.924;11.600;2024-03-08T09:48:38;5.70;99.90
26954;DHT22;14508;50.924;11.600;2024-03-08T09:51:08;5.90;99.90
26954;DHT22;14508;50.924;11.600;2024-03-08T09:53:40;6.10;99.90
26954;DHT22;14508;50.924;11.600;2024-03-08T09:56:08;6.30;98.80
26954;DHT22;14508;50.924;11.600;2024-03-08T09:58:38;6.50;96.80
26954;DHT22;14508;50.924;11.600;2024-03-08T10:01:42;6.70;95.20
26954;DHT22;14508;50.924;11.600;2024-03-08T10:04:11;7.00;93.50
26954;DHT22;14508;50.924;11.600;2024-03-08T10:06:40;7.20;92.30
26954;DHT22;14508;50.924;11.600;2024-03-08T10:09:08;7.30;91.70
26954;DHT22;14508;50.924;11.600;2024-03-08T10:11:37;7.40;90.90
26954;DHT22;14508;50.924;11.600;2024-03-08T10:14:06;7.50;88.10
26954;DHT22;14508;50.924;11.600;2024-03-08T10:16:35;7.60;86.50
26954;DHT22;14508;50.924;11.600;2024-03-08T10:19:04;7.70;83.60
26954;DHT22;14508;50.924;11.600;2024-03-08T10:21:33;7.80;82.70
26954;DHT22;14508;50.924;11.600;2024-03-08T10:24:02;7.80;81.70
26954;DHT22;14508;50.924;11.600;2024-03-08T10:26:31;7.90;80.60
26954;DHT22;14508;50.924;11.600;2024-03-08T10:28:59;8.00;79.50
26954;DHT22;14508;50.924;11.600;2024-03-08T10:31:27;8.10;78.10
26954;DHT22;14508;50.924;11.600;2024-03-08T10:33:55;8.10;77.00
26954;DHT22;14508;50.924;11.600;2024-03-08T10:36:24;8.20;76.10
26954;DHT22;14508;50.924;11.600;2024-03-08T10:38:52;8.30;76.10
26954;DHT22;14508;50.924;11.600;2024-03-08T10:41:21;8.30;74.90
26954;DHT22;14508;50.924;11.600;2024-03-08T10:44:02;8.40;73.80
26954;DHT22;14508;50.924;11.600;2024-03-08T10:46:43;8.50;73.40
26954;DHT22;14508;50.924;11.600;2024-03-08T10:49:17;8.60;72.20
26954;DHT22;14508;50.924;11.600;2024-03-08T10:51:46;8.70;71.40
26954;DHT22;14508;50.924;11.600;2024-03-08T10:54:19;8.70;70.70
26954;DHT22;14508;50.924;11.600;2024-03-08T10:56:48;8.70;70.80
26954;DHT22;14508;50.924;11.600;2024-03-08T10:59:18;8.80;70.20
26954;DHT22;14508;50.924;11.600;2024-03-08T11:01:46;8.90;69.30
26954;DHT22;14508;50.924;11.600;2024-03-08T11:04:15;8.90;68.60
26954;DHT22;14508;50.924;11.600;2024-03-08T11:06:47;9.00;69.60
26954;DHT22;14508;50.924;11.600;2024-03-08T11:09:29;9.10;69.10
26954;DHT22;14508;50.924;11.600;2024-03-08T11:12:20;9.20;68.40
26954;DHT22;14508;50.924;11.600;2024-03-08T11:14:49;9.30;67.40
26954;DHT22;14508;50.924;11.600;2024-03-08T11:17:20;9.30;67.30
26954;DHT22;14508;50.924;11.600;2024-03-08T11:19:49;9.40;67.00
26954;DHT22;14508;50.924;11.600;2024-03-08T11:22:28;9.40;66.00
26954;DHT22;14508;50.924;11.600;2024-03-08T11:24:59;9.50;65.70
26954;DHT22;14508;50.924;11.600;2024-03-08T11:27:30;9.50;65.90
26954;DHT22;14508;50.924;11.600;2024-03-08T11:30:00;9.50;65.70
26954;DHT22;14508;50.924;11.600;2024-03-08T11:32:38;9.60;65.80
26954;DHT22;14508;50.924;11.600;2024-03-08T11:35:19;9.60;65.30
26954;DHT22;14508;50.924;11.600;2024-03-08T11:37:49;9.70;65.40
26954;DHT22;14508;50.924;11.600;2024-03-08T11:40:18;9.70;65.30
26954;DHT22;14508;50.924;11.600;2024-03-08T11:42:49;9.80;64.30
26954;DHT22;14508;50.924;11.600;2024-03-08T11:45:18;9.80;64.20
26954;DHT22;14508;50.924;11.600;2024-03-08T11:47:48;9.80;63.70
26954;DHT22;14508;50.924;11.600;2024-03-08T11:50:17;9.80;63.70
26954;DHT22;14508;50.924;11.600;2024-03-08T11:52:49;9.90;63.80
26954;DHT22;14508;50.924;11.600;2024-03-08T11:55:17;10.00;63.80
26954;DHT22;14508;50.924;11.600;2024-03-08T11:57:47;10.20;63.30
26954;DHT22;14508;50.924;11.600;2024-03-08T12:00:18;10.20;63.80
26954;DHT22;14508;50.924;11.600;2024-03-08T12:03:01;10.30;62.90
26954;DHT22;14508;50.924;11.600;2024-03-08T12:05:29;10.20;62.20
26954;DHT22;14508;50.924;11.600;2024-03-08T12:08:02;10.20;62.40
26954;DHT22;14508;50.924;11.600;2024-03-08T12:10:31;10.20;62.00
26954;DHT22;14508;50.924;11.600;2024-03-08T12:12:59;10.20;62.60
26954;DHT22;14508;50.924;11.600;2024-03-08T12:15:28;10.20;62.60
26954;DHT22;14508;50.924;11.600;2024-03-08T12:17:59;10.30;62.10
26954;DHT22;14508;50.924;11.600;2024-03-08T12:20:28;10.30;61.50
26954;DHT22;14508;50.924;11.600;2024-03-08T12:22:58;10.20;61.20
26954;DHT22;14508;50.924;11.600;2024-03-08T12:25:30;10.20;61.60
26954;DHT22;14508;50.924;11.600;2024-03-08T12:28:07;10.20;61.90
26954;DHT22;14508;50.924;11.600;2024-03-08T12:30:45;10.30;61.60
26954;DHT22;14508;50.924;11.600;2024-03-08T12:33:13;10.30;61.80
26954;DHT22;14508;50.924;11.600;2024-03-08T12:35:50;10.40;61.80
26954;DHT22;14508;50.924;11.600;2024-03-08T12:38:20;10.50;61.20
26954;DHT22;14508;50.924;11.600;2024-03-08T12:40:57;10.50;60.70
26954;DHT22;14508;50.924;11.600;2024-03-08T12:43:26;10.50;61.10
26954;DHT22;14508;50.924;11.600;2024-03-08T12:45:58;10.60;60.50
26954;DHT22;14508;50.924;11.600;2024-03-08T12:48:26;10.60;59.50
26954;DHT22;14508;50.924;11.600;2024-03-08T12:50:54;10.70;59.20
26954;DHT22;14508;50.924;11.600;2024-03-08T12:53:22;10.70;59.00
26954;DHT22;14508;50.924;11.600;2024-03-08T12:55:52;10.70;58.80
26954;DHT22;14508;50.924;11.600;2024-03-08T12:58:24;10.70;58.80
26954;DHT22;14508;50.924;11.600;2024-03-08T13:00:53;10.70;58.50
26954;DHT22;14508;50.924;11.600;2024-03-08T13:03:21;10.70;58.60
26954;DHT22;14508;50.924;11.600;2024-03-08T13:05:50;10.70;58.70
26954;DHT22;14508;50.924;11.600;2024-03-08T13:08:18;10.80;58.90
26954;DHT22;14508;50.924;11.600;2024-03-08T13:10:45;10.80;58.90
26954;DHT22;14508;50.924;11.600;2024-03-08T13:13:14;10.80;58.70
26954;DHT22;14508;50.924;11.600;2024-03-08T13:15:52;10.70;58.70
26954;DHT22;14508;50.924;11.600;2024-03-08T13:18:20;10.80;59.30
26954;DHT22;14508;50.924;11.600;2024-03-08T13:20:48;10.80;59.40
26954;DHT22;14508;50.924;11.600;2024-03-08T13:23:18;10.80;59.20
26954;DHT22;14508;50.924;11.600;2024-03-08T13:25:46;10.90;59.20
26954;DHT22;14508;50.924;11.600;2024-03-08T13:28:15;11.00;59.00
26954;DHT22;14508;50.924;11.600;2024-03-08T13:30:45;11.00;58.70
26954;DHT22;14508;50.924;11.600;2024-03-08T13:33:13;11.10;58.60
26954;DHT22;14508;50.924;11.600;2024-03-08T13:35:41;11.10;58.70
26954;DHT22;14508;50.924;11.600;2024-03-08T13:38:09;11.20;58.60
26954;DHT22;14508;50.924;11.600;2024-03-08T13:40:39;11.30;58.50
26954;DHT22;14508;50.924;11.600;2024-03-08T13:43:07;11.40;58.10
26954;DHT22;14508;50.924;11.600;2024-03-08T13:45:36;11.30;57.90
26954;DHT22;14508;50.924;11.600;2024-03-08T13:48:09;11.20;58.40
26954;DHT22;14508;50.924;11.600;2024-03-08T13:50:39;11.20;58.90
26954;DHT22;14508;50.924;11.600;2024-03-08T13:53:07;11.30;58.40
26954;DHT22;14508;50.924;11.600;2024-03-08T13:55:37;11.30;58.50
26954;DHT22;14508;50.924;11.600;2024-03-08T13:58:05;11.30;58.50
26954;DHT22;14508;50.924;11.600;2024-03-08T14:00:36;11.30;58.70
26954;DHT22;14508;50.924;11.600;2024-03-08T14:03:04;11.20;58.70
26954;DHT22;14508;50.924;11.600;2024-03-08T14:05:34;11.20;59.00
26954;DHT22;14508;50.924;11.600;2024-03-08T14:08:02;11.20;58.90
26954;DHT22;14508;50.924;11.600;2024-03-08T14:10:33;11.20;58.80
26954;DHT22;14508;50.924;11.600;2024-03-08T14:13:04;11.30;58.70
26954;DHT22;14508;50.924;11.600;2024-03-08T14:15:34;11.30;58.40
26954;DHT22;14508;50.924;11.600;2024-03-08T14:18:03;11.30;58.60
26954;DHT22;14508;50.924;11.600;2024-03-08T14:20:35;11.40;58.70
26954;DHT22;14508;50.924;11.600;2024-03-08T14:23:03;11.50;58.50
26954;DHT22;14508;50.924;11.600;2024-03-08T14:25:33;11.60;58.40
26954;DHT22;14508;50.924;11.600;2024-03-08T14:28:01;11.70;58.20
26954;DHT22;14508;50.924;11.600;2024-03-08T14:30:33;11.70;58.20
26954;DHT22;14508;50.924;11.600;2024-03-08T14:33:05;11.80;57.90
26954;DHT22;14508;50.924;11.600;2024-03-08T14:35:37;11.90;57.40
26954;DHT22;14508;50.924;11.600;2024-03-08T14:38:06;11.90;56.90
26954;DHT22;14508;50.924;11.600;2024-03-08T14:40:35;12.00;57.00
26954;DHT22;14508;50.924;11.600;2024-03-08T14:43:03;12.00;56.80
26954;DHT22;14508;50.924;11.600;2024-03-08T14:45:32;12.10;56.80
26954;DHT22;14508;50.924;11.600;2024-03-08T14:48:01;12.10;56.70
26954;DHT22;14508;50.924;11.600;2024-03-08T14:50:29;12.20;56.40
26954;DHT22;14508;50.924;11.600;2024-03-08T14:52:59;12.20;56.20
26954;DHT22;14508;50.924;11.600;2024-03-08T14:55:28;12.10;56.10
26954;DHT22;14508;50.924;11.600;2024-03-08T14:57:57;12.00;55.90
26954;DHT22;14508;50.924;11.600;2024-03-08T15:00:25;12.00;56.40
26954;DHT22;14508;50.924;11.600;2024-03-08T15:03:01;11.90;56.50
26954;DHT22;14508;50.924;11.600;2024-03-08T15:05:31;11.80;56.50
26954;DHT22;14508;50.924;11.600;2024-03-08T15:08:04;11.80;56.40
26954;DHT22;14508;50.924;11.600;2024-03-08T15:10:36;11.80;55.80
26954;DHT22;14508;50.924;11.600;2024-03-08T15:13:07;11.80;56.00
26954;DHT22;14508;50.924;11.600;2024-03-08T15:15:42;11.80;55.60
26954;DHT22;14508;50.924;11.600;2024-03-08T15:18:10;11.80;54.60
26954;DHT22;14508;50.924;11.600;2024-03-08T15:20:39;11.80;54.80
26954;DHT22;14508;50.924;11.600;2024-03-08T15:23:09;11.70;54.80
26954;DHT22;14508;50.924;11.600;2024-03-08T15:25:37;11.60;55.00
26954;DHT22;14508;50.924;11.600;2024-03-08T15:28:08;11.60;55.10
26954;DHT22;14508;50.924;11.600;2024-03-08T15:30:41;11.60;55.20
26954;DHT22;14508;50.924;11.600;2024-03-08T15:33:13;11.60;55.00